LiveATC.Net - Listen to live air traffic control over the Internet! Contact LiveATC.net for advertising information


ICAO: CYQM  IATA: YQM   Airport: Greater Moncton International Airport
City: Moncton   State/Province: New Brunswick
Country: Canada   Continent: North America
CYQM METAR Weather: CYQM 300700Z 21004KT 15SM FEW035 BKN055 11/10 A2988 RMK SC1SC4 SLP119
CYQM Flight Activity (FlightAware)
CYQM Gnd/Twr/Center/Misc
Feed Status: DOWN
Last heard on: 2015-06-29 04:10:03 (1 days 4 hours 8 minutes ago)
CYQM Gnd/Twr/Center/Misc Audio Archives
FacilityFrequency
Moncton Center (FL280/below)124.400
Moncton Flight College123.350
Moncton Ground121.800
Moncton Tower120.800


NOTICE

Unauthorized use prohibited. See LiveATC.net Terms of Service


Find LiveATC Audio Streams


Airport/ARTCC Code

Frequency
(e.g., 124.400, 128.75)
Site-wide search

Browse LiveATC Feeds
LiveATC Coverage Map
Top 50 LiveATC Feeds
Bad Weather Areas

LiveATC FAQ
Offer a LiveATC Feed
Contact LiveATC.net
Press Inquiries

LiveATC on iPhone
LiveATC on Android

LiveATC Mobile
(Mobile browser)

ATC Audio Archives
Interesting Recordings

LiveATC Forums


Home Page
About LiveATC.net
Make a Donation
LiveATC Bookstore

Terms of Use
Privacy Policy

ATC/Radar Sites
U.S. ARTCC Freqs
Canadian Air Freqs

AIRMETs/SIGMETs

FAA Airport Status
Nat'l Airspace Status
Arrival Demand Charts


Server Software By:
Icecast.org
Liquidsoap

Please make a donation to help us keep growing!